createdAt,value
2022-10-31T00:01:35.816Z,11.45
2022-10-31T00:04:05.430Z,10.85
2022-10-31T00:06:34.145Z,10.70
2022-10-31T00:09:05.201Z,10.82
2022-10-31T00:11:33.975Z,9.73
2022-10-31T00:14:02.594Z,9.73
2022-10-31T00:16:31.300Z,12.73
2022-10-31T00:19:02.233Z,11.32
2022-10-31T00:21:32.309Z,11.10
2022-10-31T00:24:01.514Z,8.80
2022-10-31T00:26:32.161Z,11.02
2022-10-31T00:29:01.080Z,11.32
2022-10-31T00:31:29.948Z,10.68
2022-10-31T00:33:58.599Z,10.95
2022-10-31T00:36:27.102Z,11.15
2022-10-31T00:38:55.961Z,10.80
2022-10-31T00:41:24.406Z,8.48
2022-10-31T00:43:52.783Z,11.88
2022-10-31T00:46:21.186Z,12.25
2022-10-31T00:48:49.627Z,10.40
2022-10-31T00:51:18.267Z,12.15
2022-10-31T00:53:46.706Z,12.77
2022-10-31T00:56:15.202Z,13.70
2022-10-31T00:58:43.675Z,10.10
2022-10-31T01:01:12.152Z,13.63
2022-10-31T01:03:40.985Z,10.07
2022-10-31T01:06:11.242Z,10.23
2022-10-31T01:08:40.470Z,9.80
2022-10-31T01:11:23.579Z,10.27
2022-10-31T01:13:54.151Z,8.80
2022-10-31T01:16:25.141Z,12.38
2022-10-31T01:18:54.010Z,9.75
2022-10-31T01:21:24.116Z,12.80
2022-10-31T01:23:54.917Z,10.30
2022-10-31T01:26:26.415Z,11.60
2022-10-31T01:29:02.960Z,9.98
2022-10-31T01:31:34.486Z,9.57
2022-10-31T01:34:04.115Z,9.60
2022-10-31T01:36:36.014Z,11.48
2022-10-31T01:39:10.456Z,9.15
2022-10-31T01:41:44.409Z,10.40
2022-10-31T01:44:15.783Z,8.98
2022-10-31T01:46:48.499Z,11.10
2022-10-31T01:49:38.623Z,10.38
2022-10-31T01:52:28.178Z,12.10
2022-10-31T01:54:59.828Z,10.85
2022-10-31T01:57:29.852Z,11.68
2022-10-31T02:00:01.815Z,11.35
2022-10-31T02:02:32.449Z,9.88
2022-10-31T02:05:03.596Z,12.32
2022-10-31T02:07:40.489Z,9.65
2022-10-31T02:10:09.308Z,9.10
2022-10-31T02:12:39.131Z,11.95
2022-10-31T02:15:09.242Z,11.63
2022-10-31T02:17:37.754Z,10.80
2022-10-31T02:20:24.677Z,11.48
2022-10-31T02:23:20.982Z,10.32
2022-10-31T02:26:24.750Z,11.60
2022-10-31T02:29:24.014Z,12.05
2022-10-31T02:32:15.151Z,12.20
2022-10-31T02:34:59.219Z,12.00
2022-10-31T02:37:46.435Z,11.30
2022-10-31T02:40:23.997Z,12.35
2022-10-31T02:43:04.899Z,9.82
2022-10-31T02:45:58.747Z,10.55
2022-10-31T02:48:36.113Z,14.32
2022-10-31T02:51:06.105Z,14.07
2022-10-31T02:53:35.879Z,15.23
2022-10-31T02:56:13.410Z,13.73
2022-10-31T02:59:00.841Z,15.13
2022-10-31T03:01:50.201Z,16.08
2022-10-31T03:04:57.367Z,14.07
2022-10-31T03:08:01.096Z,15.43
2022-10-31T03:10:54.347Z,14.60
2022-10-31T03:16:09.282Z,15.88
2022-10-31T03:18:47.690Z,15.90
2022-10-31T03:21:22.804Z,13.65
2022-10-31T03:23:53.110Z,19.60
2022-10-31T03:26:24.212Z,16.27
2022-10-31T03:29:03.017Z,16.27
2022-10-31T03:31:38.068Z,15.75
2022-10-31T03:34:08.635Z,17.58
2022-10-31T03:36:39.966Z,18.73
2022-10-31T03:39:13.731Z,18.77
2022-10-31T03:42:00.755Z,17.02
2022-10-31T03:44:31.217Z,15.50
2022-10-31T03:47:00.635Z,15.77
2022-10-31T03:49:29.954Z,16.10
2022-10-31T03:52:06.029Z,18.65
2022-10-31T03:54:43.356Z,15.68
2022-10-31T03:57:17.367Z,19.25
2022-10-31T03:59:51.896Z,18.38
2022-10-31T04:02:26.961Z,15.20
2022-10-31T04:04:56.647Z,17.05
2022-10-31T04:07:31.078Z,15.13
2022-10-31T04:10:03.053Z,17.45
2022-10-31T04:12:33.218Z,17.40
2022-10-31T04:15:04.017Z,20.08
2022-10-31T04:17:35.592Z,16.40
2022-10-31T04:20:04.439Z,15.93
2022-10-31T04:22:32.973Z,16.27
2022-10-31T04:25:01.363Z,17.77
2022-10-31T04:27:29.735Z,16.25
2022-10-31T04:29:58.193Z,19.52
2022-10-31T04:32:27.109Z,19.70
2022-10-31T04:34:55.468Z,17.98
2022-10-31T04:37:23.797Z,15.60
2022-10-31T04:39:52.125Z,19.40
2022-10-31T04:42:20.550Z,19.65
2022-10-31T04:44:48.902Z,18.77
2022-10-31T04:47:17.447Z,18.05
2022-10-31T04:49:45.810Z,17.45
2022-10-31T04:52:15.459Z,19.48
2022-10-31T04:54:43.819Z,18.85
2022-10-31T04:57:12.250Z,19.15
2022-10-31T04:59:40.668Z,18.48
2022-10-31T05:02:09.199Z,20.35
2022-10-31T05:04:37.595Z,16.15
2022-10-31T05:07:06.007Z,20.50
2022-10-31T05:09:34.389Z,21.08
2022-10-31T05:12:02.891Z,18.40
2022-10-31T05:14:31.395Z,16.20
2022-10-31T05:16:59.754Z,19.92
2022-10-31T05:19:29.108Z,20.10
2022-10-31T05:21:57.594Z,17.50
2022-10-31T05:24:26.986Z,16.55
2022-10-31T05:26:55.363Z,21.30
2022-10-31T05:29:23.759Z,17.83
2022-10-31T05:31:52.175Z,15.35
2022-10-31T05:34:20.551Z,17.17
2022-10-31T05:36:49.009Z,15.73
2022-10-31T05:39:18.383Z,21.17
2022-10-31T05:41:46.721Z,20.58
2022-10-31T05:44:15.093Z,18.25
2022-10-31T05:46:43.485Z,17.67
2022-10-31T05:49:11.887Z,20.30
2022-10-31T05:51:40.256Z,21.35
2022-10-31T05:54:10.845Z,22.02
2022-10-31T05:56:43.237Z,21.13
2022-10-31T05:59:11.644Z,18.48
2022-10-31T06:01:40.158Z,19.80
2022-10-31T06:04:08.679Z,17.88
2022-10-31T06:06:37.561Z,18.75
2022-10-31T06:09:05.920Z,23.00
2022-10-31T06:11:34.247Z,19.10
2022-10-31T06:14:02.954Z,20.73
2022-10-31T06:16:31.386Z,19.88
2022-10-31T06:18:59.806Z,20.17
2022-10-31T06:21:28.323Z,20.70
2022-10-31T06:23:56.843Z,21.52
2022-10-31T06:26:25.386Z,20.92
2022-10-31T06:28:56.114Z,20.05
2022-10-31T06:31:26.086Z,22.23
2022-10-31T06:33:54.641Z,22.30
2022-10-31T06:36:23.219Z,22.60
2022-10-31T06:38:51.622Z,23.05
2022-10-31T06:41:21.028Z,26.17
2022-10-31T06:43:49.415Z,22.70
2022-10-31T06:46:17.811Z,24.88
2022-10-31T06:48:46.241Z,19.85
2022-10-31T06:51:14.793Z,23.73
2022-10-31T06:53:43.205Z,22.50
2022-10-31T06:56:11.663Z,25.55
2022-10-31T06:58:40.074Z,19.75
2022-10-31T07:01:08.662Z,20.98
2022-10-31T07:03:40.316Z,22.33
2022-10-31T07:06:09.050Z,24.58
2022-10-31T07:08:37.464Z,22.60
2022-10-31T07:11:06.010Z,24.17
2022-10-31T07:13:34.458Z,23.65
2022-10-31T07:16:05.565Z,22.52
2022-10-31T07:18:34.964Z,23.92
2022-10-31T07:21:03.701Z,21.65
2022-10-31T07:23:32.478Z,26.08
2022-10-31T07:26:00.925Z,21.48
2022-10-31T07:28:29.522Z,21.35
2022-10-31T07:30:58.669Z,26.77
2022-10-31T07:33:27.612Z,26.30
2022-10-31T07:35:56.039Z,25.02
2022-10-31T07:38:24.599Z,20.58
2022-10-31T07:40:53.858Z,22.92
2022-10-31T07:43:22.376Z,19.85
2022-10-31T07:45:52.994Z,21.48
2022-10-31T07:48:21.955Z,21.92
2022-10-31T07:50:50.507Z,24.30
2022-10-31T07:53:19.009Z,23.88
2022-10-31T07:55:47.430Z,23.05
2022-10-31T07:58:17.719Z,23.63
2022-10-31T08:00:48.024Z,22.45
2022-10-31T08:03:18.758Z,24.17
2022-10-31T08:05:47.284Z,21.55
2022-10-31T08:08:16.485Z,24.00
2022-10-31T08:10:45.101Z,22.77
2022-10-31T08:13:14.800Z,21.77
2022-10-31T08:15:45.375Z,17.50
2022-10-31T08:18:15.475Z,15.30
2022-10-31T08:20:44.402Z,17.88
2022-10-31T08:23:13.713Z,19.63
2022-10-31T08:25:43.195Z,17.58
2022-10-31T08:28:12.831Z,20.48
2022-10-31T08:30:42.348Z,21.95
2022-10-31T08:33:19.021Z,25.88
2022-10-31T08:35:48.474Z,21.42
2022-10-31T08:38:16.991Z,24.77
2022-10-31T08:40:50.310Z,25.10
2022-10-31T08:43:20.094Z,23.17
2022-10-31T08:45:50.313Z,29.25
2022-10-31T08:48:18.793Z,26.13
2022-10-31T08:50:47.879Z,24.05
2022-10-31T08:53:18.936Z,28.25
2022-10-31T08:55:49.375Z,23.40
2022-10-31T08:58:20.006Z,27.10
2022-10-31T09:00:50.778Z,24.98
2022-10-31T09:03:22.474Z,25.90
2022-10-31T09:05:51.966Z,27.23
2022-10-31T09:08:20.539Z,28.38
2022-10-31T09:10:49.166Z,27.63
2022-10-31T09:13:19.881Z,30.00
2022-10-31T09:15:49.893Z,29.85
2022-10-31T09:18:21.363Z,29.13
2022-10-31T09:20:50.854Z,27.13
2022-10-31T09:23:21.523Z,27.67
2022-10-31T09:25:52.733Z,26.65
2022-10-31T09:28:23.461Z,27.77
2022-10-31T09:30:53.780Z,27.88
2022-10-31T09:33:22.588Z,28.88
2022-10-31T09:35:52.126Z,27.35
2022-10-31T09:38:21.947Z,32.25
2022-10-31T09:41:02.491Z,35.08
2022-10-31T09:43:54.199Z,27.25
2022-10-31T09:46:41.911Z,28.55
2022-10-31T09:49:32.307Z,28.90
2022-10-31T09:52:11.774Z,34.35
2022-10-31T09:54:48.446Z,29.05
2022-10-31T09:57:23.427Z,30.88
2022-10-31T09:59:52.652Z,33.33
2022-10-31T10:02:40.646Z,31.92
2022-10-31T10:05:15.675Z,30.42
2022-10-31T10:08:08.347Z,33.83
2022-10-31T10:11:13.004Z,32.00
2022-10-31T10:13:58.837Z,32.63
2022-10-31T10:16:52.716Z,33.65
2022-10-31T10:19:34.670Z,34.40
2022-10-31T10:22:15.020Z,38.75
2022-10-31T10:24:50.868Z,31.75
2022-10-31T10:27:44.044Z,38.88
2022-10-31T10:30:12.400Z,37.58
2022-10-31T10:32:59.962Z,36.55
2022-10-31T10:35:35.862Z,32.40
2022-10-31T10:38:25.665Z,29.27
2022-10-31T10:40:54.976Z,23.95
2022-10-31T10:43:43.936Z,30.67
2022-10-31T10:46:38.470Z,29.00
2022-10-31T10:49:15.543Z,33.22
2022-10-31T10:54:48.053Z,32.22
2022-10-31T10:57:19.581Z,32.80
2022-10-31T10:59:48.474Z,30.80
2022-10-31T11:02:23.549Z,28.40
2022-10-31T11:04:55.074Z,31.77
2022-10-31T11:07:24.029Z,27.88
2022-10-31T11:10:04.539Z,31.58
2022-10-31T11:12:34.765Z,31.27
2022-10-31T11:15:17.472Z,29.13
2022-10-31T11:17:50.685Z,33.15
2022-10-31T11:20:19.385Z,31.67
2022-10-31T11:22:49.304Z,35.55
2022-10-31T11:25:20.877Z,29.20
2022-10-31T11:28:15.424Z,34.75
2022-10-31T11:30:49.781Z,28.48
2022-10-31T11:33:40.526Z,26.85
2022-10-31T11:36:31.683Z,29.08
2022-10-31T11:39:04.625Z,27.33
2022-10-31T11:41:36.755Z,27.80
2022-10-31T11:44:10.927Z,29.88
2022-10-31T11:46:42.367Z,33.75
2022-10-31T11:49:54.055Z,30.20
2022-10-31T11:52:29.229Z,27.58
2022-10-31T11:55:30.015Z,26.80
2022-10-31T11:57:58.840Z,27.13
2022-10-31T12:00:33.478Z,28.30
2022-10-31T12:03:23.866Z,28.67
2022-10-31T12:06:15.616Z,31.38
2022-10-31T12:08:44.364Z,30.52
2022-10-31T12:11:29.541Z,30.20
2022-10-31T12:14:44.053Z,32.22
2022-10-31T12:17:26.072Z,30.70
2022-10-31T12:20:24.065Z,29.02
2022-10-31T12:23:21.836Z,28.17
2022-10-31T12:26:08.924Z,26.40
2022-10-31T12:29:03.658Z,21.17
2022-10-31T12:32:10.251Z,26.83
2022-10-31T12:34:38.815Z,27.48
2022-10-31T12:37:58.983Z,18.27
2022-10-31T12:41:01.020Z,19.48
2022-10-31T12:43:47.395Z,20.92
2022-10-31T12:46:30.596Z,21.45
2022-10-31T12:49:13.219Z,20.25
2022-10-31T12:51:54.271Z,21.92
2022-10-31T12:54:39.802Z,22.05
2022-10-31T12:57:32.439Z,19.02
2022-10-31T13:00:05.886Z,20.15
2022-10-31T13:02:58.924Z,19.27
2022-10-31T13:05:35.428Z,19.52
2022-10-31T13:08:12.097Z,17.77
2022-10-31T13:10:49.724Z,20.48
2022-10-31T13:13:27.311Z,16.73
2022-10-31T13:16:03.805Z,17.60
2022-10-31T13:18:39.657Z,23.88
2022-10-31T13:21:21.938Z,18.73
2022-10-31T13:23:55.141Z,18.88
2022-10-31T13:26:42.920Z,26.40
2022-10-31T13:29:34.590Z,19.50
2022-10-31T13:32:07.781Z,17.42
2022-10-31T13:34:51.574Z,21.55
2022-10-31T13:37:39.133Z,16.45
2022-10-31T13:40:19.699Z,19.00
2022-10-31T13:43:07.354Z,19.05
2022-10-31T13:45:36.007Z,18.02
2022-10-31T13:48:07.536Z,18.60
2022-10-31T13:50:35.932Z,17.10
2022-10-31T13:53:12.500Z,17.42
2022-10-31T13:55:50.297Z,15.65
2022-10-31T13:58:30.476Z,20.27
2022-10-31T14:01:12.120Z,16.85
2022-10-31T14:04:06.254Z,16.20
2022-10-31T14:06:39.598Z,16.77
2022-10-31T14:09:38.471Z,17.17
2022-10-31T14:12:29.509Z,17.75
2022-10-31T14:15:05.622Z,16.95
2022-10-31T14:18:05.471Z,17.38
2022-10-31T14:20:45.065Z,14.30
2022-10-31T14:23:33.542Z,13.95
2022-10-31T14:26:29.660Z,14.77
2022-10-31T14:29:03.081Z,16.70
2022-10-31T14:31:40.165Z,16.45
2022-10-31T14:34:32.906Z,13.68
2022-10-31T14:37:38.562Z,15.07
2022-10-31T14:40:32.730Z,14.73
2022-10-31T14:43:29.784Z,14.48
2022-10-31T14:46:23.246Z,15.90
2022-10-31T14:49:05.088Z,14.02
2022-10-31T14:51:40.662Z,14.45
2022-10-31T14:54:16.207Z,15.23
2022-10-31T14:56:52.098Z,14.25
2022-10-31T14:59:25.447Z,17.88
2022-10-31T15:02:09.751Z,13.15
2022-10-31T15:04:39.387Z,13.32
2022-10-31T15:07:19.141Z,13.23
2022-10-31T15:10:01.815Z,15.68
2022-10-31T15:12:33.056Z,14.20
2022-10-31T15:15:17.921Z,13.85
2022-10-31T15:17:57.279Z,12.60
2022-10-31T15:20:28.594Z,14.63
2022-10-31T15:22:59.792Z,12.70
2022-10-31T15:25:34.561Z,11.07
2022-10-31T15:28:14.806Z,15.68
2022-10-31T15:30:56.127Z,13.85
2022-10-31T15:33:38.662Z,16.30
2022-10-31T15:36:23.923Z,13.85
2022-10-31T15:38:59.647Z,15.02
2022-10-31T15:41:37.087Z,14.40
2022-10-31T15:44:20.655Z,12.20
2022-10-31T15:46:59.408Z,13.90
2022-10-31T15:49:38.279Z,17.02
2022-10-31T15:52:41.009Z,13.23
2022-10-31T15:55:16.393Z,12.10
2022-10-31T15:57:48.083Z,12.18
2022-10-31T16:00:39.117Z,13.32
2022-10-31T16:03:07.504Z,15.13
2022-10-31T16:05:47.879Z,12.35
2022-10-31T16:08:31.765Z,11.90
2022-10-31T16:11:03.962Z,12.90
2022-10-31T16:13:38.836Z,11.52
2022-10-31T16:19:06.499Z,13.65
2022-10-31T16:21:38.173Z,9.02
2022-10-31T16:24:26.158Z,11.63
2022-10-31T16:26:59.148Z,9.48
2022-10-31T16:29:42.717Z,13.13
2022-10-31T16:32:27.766Z,11.68
2022-10-31T16:35:01.468Z,13.13
2022-10-31T16:37:30.293Z,12.68
2022-10-31T16:39:58.783Z,13.27
2022-10-31T16:42:27.836Z,11.93
2022-10-31T16:44:56.288Z,13.10
2022-10-31T16:47:28.445Z,12.02
2022-10-31T16:50:00.808Z,14.27
2022-10-31T16:52:38.062Z,10.40
2022-10-31T16:55:20.450Z,12.38
2022-10-31T16:57:55.252Z,13.25
2022-10-31T17:00:27.512Z,12.48
2022-10-31T17:02:57.842Z,11.02
2022-10-31T17:05:30.592Z,11.00
2022-10-31T17:08:00.533Z,11.95
2022-10-31T17:10:30.759Z,9.25
2022-10-31T17:13:03.612Z,12.05
2022-10-31T17:15:40.166Z,11.13
2022-10-31T17:18:12.859Z,11.40
2022-10-31T17:20:41.938Z,9.63
2022-10-31T17:23:12.510Z,9.95
2022-10-31T17:25:41.331Z,11.55
2022-10-31T17:28:14.611Z,9.98
2022-10-31T17:30:44.049Z,10.57
2022-10-31T17:33:15.547Z,11.10
2022-10-31T17:35:47.498Z,9.18
2022-10-31T17:38:16.253Z,11.57
2022-10-31T17:40:45.106Z,9.93
2022-10-31T17:43:13.686Z,9.15
2022-10-31T17:45:42.518Z,10.23
2022-10-31T17:48:12.488Z,11.10
2022-10-31T17:50:41.016Z,11.38
2022-10-31T17:53:09.639Z,9.88
2022-10-31T17:55:38.134Z,10.63
2022-10-31T17:58:06.792Z,12.55
2022-10-31T18:00:35.261Z,10.20
2022-10-31T18:03:04.508Z,11.85
2022-10-31T18:05:34.330Z,11.35
2022-10-31T18:08:04.406Z,8.98
2022-10-31T18:10:32.889Z,11.13
2022-10-31T18:13:01.594Z,11.88
2022-10-31T18:15:30.557Z,9.68
2022-10-31T18:18:00.334Z,9.73
2022-10-31T18:20:29.338Z,9.88
2022-10-31T18:22:57.786Z,11.95
2022-10-31T18:25:26.245Z,12.30
2022-10-31T18:27:54.677Z,10.45
2022-10-31T18:30:23.075Z,7.43
2022-10-31T18:32:51.883Z,10.93
2022-10-31T18:35:20.482Z,9.32
2022-10-31T18:37:48.833Z,11.15
2022-10-31T18:40:17.312Z,9.93
2022-10-31T18:42:45.693Z,10.45
2022-10-31T18:45:31.256Z,11.10
2022-10-31T18:48:02.582Z,12.00
2022-10-31T18:50:31.224Z,9.82
2022-10-31T18:52:59.877Z,11.85
2022-10-31T18:55:28.578Z,9.98
2022-10-31T18:57:57.125Z,11.45
2022-10-31T19:00:26.471Z,23.35
2022-10-31T19:02:56.572Z,16.83
2022-10-31T19:05:25.098Z,15.40
2022-10-31T19:07:53.506Z,12.48
2022-10-31T19:10:21.921Z,10.38
2022-10-31T19:12:50.281Z,11.60
2022-10-31T19:15:19.641Z,11.95
2022-10-31T19:17:48.101Z,10.05
2022-10-31T19:20:16.618Z,8.90
2022-10-31T19:22:44.943Z,8.48
2022-10-31T19:25:13.308Z,8.10
2022-10-31T19:27:41.871Z,10.85
2022-10-31T19:30:10.957Z,9.20
2022-10-31T19:32:40.414Z,11.27
2022-10-31T19:35:09.275Z,10.93
2022-10-31T19:37:39.677Z,15.30
2022-10-31T19:40:09.352Z,11.27
2022-10-31T19:42:38.830Z,11.73
2022-10-31T19:45:07.598Z,9.45
2022-10-31T19:47:35.949Z,22.35
2022-10-31T19:50:04.988Z,11.32
2022-10-31T19:52:35.079Z,8.48
2022-10-31T19:55:03.815Z,11.35
2022-10-31T19:58:00.258Z,7.45
2022-10-31T20:00:23.630Z,11.63
2022-10-31T20:02:51.985Z,8.32
2022-10-31T20:05:21.390Z,8.65
2022-10-31T20:07:49.792Z,9.57
2022-10-31T20:10:18.167Z,11.57
2022-10-31T20:12:46.561Z,11.85
2022-10-31T20:15:15.083Z,8.38
2022-10-31T20:17:43.572Z,10.05
2022-10-31T20:20:12.347Z,7.35
2022-10-31T20:22:40.899Z,9.70
2022-10-31T20:25:09.323Z,9.20
2022-10-31T20:27:37.917Z,11.27
2022-10-31T20:30:06.986Z,10.48
2022-10-31T20:32:36.008Z,8.32
2022-10-31T20:35:04.707Z,8.23
2022-10-31T20:37:33.145Z,9.95
2022-10-31T20:40:01.517Z,6.97
2022-10-31T20:42:29.847Z,8.20
2022-10-31T20:44:58.220Z,8.30
2022-10-31T20:47:26.687Z,8.75
2022-10-31T20:49:55.185Z,9.70
2022-10-31T20:52:23.558Z,7.78
2022-10-31T20:54:51.957Z,11.45
2022-10-31T20:57:20.926Z,9.45
2022-10-31T20:59:49.978Z,12.43
2022-10-31T21:02:18.446Z,11.13
2022-10-31T21:04:46.936Z,10.88
2022-10-31T21:07:15.338Z,12.20
2022-10-31T21:09:43.735Z,10.10
2022-10-31T21:12:12.182Z,11.55
2022-10-31T21:14:40.525Z,13.40
2022-10-31T21:17:08.994Z,11.00
2022-10-31T21:19:37.546Z,12.15
2022-10-31T21:22:06.006Z,7.60
2022-10-31T21:24:34.814Z,10.93
2022-10-31T21:27:07.224Z,9.50
2022-10-31T21:29:36.993Z,9.63
2022-10-31T21:32:05.472Z,10.43
2022-10-31T21:34:33.851Z,8.32
2022-10-31T21:37:02.199Z,9.13
2022-10-31T21:39:31.205Z,11.60
2022-10-31T21:41:59.707Z,9.68
2022-10-31T21:44:28.045Z,7.30
2022-10-31T21:46:56.584Z,9.10
2022-10-31T21:49:25.023Z,10.77
2022-10-31T21:51:53.386Z,9.38
2022-10-31T21:54:27.646Z,9.23
2022-10-31T21:56:57.953Z,8.88
2022-10-31T21:59:27.032Z,10.50
2022-10-31T22:02:00.789Z,8.30
2022-10-31T22:04:29.645Z,9.23
2022-10-31T22:06:58.046Z,7.43
2022-10-31T22:09:26.577Z,8.27
2022-10-31T22:11:54.938Z,8.90
2022-10-31T22:14:23.328Z,13.95
2022-10-31T22:16:51.756Z,10.77
2022-10-31T22:19:20.109Z,7.50
2022-10-31T22:21:48.968Z,8.35
2022-10-31T22:24:18.487Z,7.63
2022-10-31T22:26:46.839Z,7.22
2022-10-31T22:29:17.454Z,9.90
2022-10-31T22:31:50.600Z,11.40
2022-10-31T22:34:22.056Z,9.07
2022-10-31T22:36:50.539Z,8.35
2022-10-31T22:39:19.019Z,7.90
2022-10-31T22:41:47.450Z,7.60
2022-10-31T22:44:15.772Z,7.15
2022-10-31T22:46:44.156Z,8.45
2022-10-31T22:49:16.944Z,8.13
2022-10-31T22:51:45.781Z,9.07
2022-10-31T22:54:16.307Z,7.50
2022-10-31T22:56:45.249Z,8.70
2022-10-31T22:59:15.063Z,6.82
2022-10-31T23:01:47.636Z,9.77
2022-10-31T23:04:17.033Z,10.48
2022-10-31T23:06:45.861Z,7.93
2022-10-31T23:09:16.346Z,9.70
2022-10-31T23:11:44.946Z,13.25
2022-10-31T23:14:20.621Z,8.20
2022-10-31T23:16:52.182Z,9.75
2022-10-31T23:19:22.757Z,8.47
2022-10-31T23:21:57.367Z,9.45
2022-10-31T23:24:39.139Z,6.53
2022-10-31T23:27:24.255Z,9.23
2022-10-31T23:29:55.295Z,9.25
2022-10-31T23:32:25.154Z,8.55
2022-10-31T23:34:56.087Z,10.73
2022-10-31T23:37:27.550Z,8.65
2022-10-31T23:39:56.294Z,7.38
2022-10-31T23:42:25.807Z,7.63
2022-10-31T23:44:54.721Z,9.23
2022-10-31T23:47:23.710Z,11.88
2022-10-31T23:49:52.195Z,8.13
2022-10-31T23:52:20.775Z,8.63
2022-10-31T23:54:49.166Z,7.28
2022-10-31T23:57:17.976Z,7.65
2022-10-31T23:59:47.851Z,8.65
